Time,TemperatureF,DewpointF,PressureIn,WindDirection,WindDirectionDegrees,WindSpeedMPH,WindSpeedGustMPH,Humidity,HourlyPrecipIn,Conditions,Clouds,dailyrainin,SolarRadiationWatts/m^2,SoftwareType,DateUTC
2013-03-23 00:02:00,47.0,44.0,-100.00,NNE,30,6.0,11.0,89,0.00,,,0.00,0.000000,,2013-03-23 05:02:00,
2013-03-23 00:33:00,47.0,43.0,-100.00,NE,41,6.0,10.0,87,0.00,,,0.00,0.000000,,2013-03-23 05:33:00,
2013-03-23 00:42:00,47.0,43.0,-100.00,NE,41,6.0,10.0,87,0.00,,,0.00,0.000000,,2013-03-23 05:42:00,
2013-03-23 00:52:00,47.0,43.0,-100.00,NE,41,6.0,10.0,87,0.00,,,0.00,0.000000,,2013-03-23 05:52:00,
2013-03-23 01:02:00,47.0,43.0,-100.00,NE,41,6.0,10.0,87,0.00,,,0.00,0.000000,,2013-03-23 06:02:00,
2013-03-23 01:32:00,47.0,44.0,-100.00,NNE,18,5.0,9.0,88,0.00,,,0.00,0.000000,,2013-03-23 06:32:00,
2013-03-23 01:42:00,47.0,44.0,-100.00,NNE,18,5.0,9.0,88,0.00,,,0.00,0.000000,,2013-03-23 06:42:00,
2013-03-23 01:52:00,47.0,44.0,-100.00,NNE,18,5.0,9.0,88,0.00,,,0.00,0.000000,,2013-03-23 06:52:00,
2013-03-23 02:02:00,47.0,44.0,-100.00,NNE,18,5.0,9.0,88,0.00,,,0.00,0.000000,,2013-03-23 07:02:00,
2013-03-23 02:33:00,47.0,44.0,-100.00,NE,36,6.0,10.0,88,0.00,,,0.00,0.000000,,2013-03-23 07:33:00,
2013-03-23 02:42:00,47.0,44.0,-100.00,NE,36,6.0,10.0,88,0.00,,,0.00,0.000000,,2013-03-23 07:42:00,
2013-03-23 02:52:00,47.0,44.0,-100.00,NE,36,6.0,10.0,88,0.00,,,0.00,0.000000,,2013-03-23 07:52:00,
2013-03-23 03:02:00,47.0,44.0,-100.00,NE,36,6.0,10.0,88,0.00,,,0.00,0.000000,,2013-03-23 08:02:00,
2013-03-23 03:32:00,47.0,43.0,-100.00,NNE,18,4.0,7.0,87,0.00,,,0.00,0.000000,,2013-03-23 08:32:00,
2013-03-23 03:42:00,47.0,43.0,-100.00,NNE,18,4.0,7.0,87,0.00,,,0.00,0.000000,,2013-03-23 08:42:00,
2013-03-23 03:52:00,47.0,43.0,-100.00,NNE,18,4.0,7.0,87,0.00,,,0.00,0.000000,,2013-03-23 08:52:00,
2013-03-23 04:02:00,47.0,43.0,-100.00,NNE,18,4.0,7.0,87,0.00,,,0.00,0.000000,,2013-03-23 09:02:00,
2013-03-23 04:33:00,47.0,44.0,-100.00,NE,37,5.0,10.0,90,0.00,,,0.00,0.000000,,2013-03-23 09:33:00,
2013-03-23 04:43:00,47.0,44.0,-100.00,NE,37,5.0,10.0,90,0.00,,,0.00,0.000000,,2013-03-23 09:43:00,
2013-03-23 04:53:00,47.0,44.0,-100.00,NE,37,5.0,10.0,90,0.00,,,0.00,0.000000,,2013-03-23 09:53:00,
2013-03-23 05:03:00,47.0,44.0,-100.00,NE,37,5.0,10.0,90,0.00,,,0.00,0.000000,,2013-03-23 10:03:00,
2013-03-23 05:34:00,47.0,45.0,-100.00,NNE,26,5.0,9.0,92,0.00,,,0.00,0.000000,,2013-03-23 10:34:00,
2013-03-23 05:43:00,47.0,45.0,-100.00,NNE,26,5.0,9.0,92,0.00,,,0.00,0.000000,,2013-03-23 10:43:00,
2013-03-23 05:52:00,47.0,45.0,-100.00,NNE,26,5.0,9.0,92,0.00,,,0.00,0.000000,,2013-03-23 10:52:00,
2013-03-23 06:03:00,47.0,45.0,-100.00,NNE,26,5.0,9.0,92,0.00,,,0.00,0.000000,,2013-03-23 11:03:00,
2013-03-23 06:32:00,46.0,44.0,-100.00,North,4,7.0,13.0,92,0.00,,,0.00,0.000000,,2013-03-23 11:32:00,
2013-03-23 06:42:00,46.0,44.0,-100.00,North,4,7.0,13.0,92,0.00,,,0.00,0.000000,,2013-03-23 11:42:00,
2013-03-23 06:52:00,46.0,44.0,-100.00,North,4,7.0,13.0,92,0.00,,,0.00,0.000000,,2013-03-23 11:52:00,
2013-03-23 07:02:00,46.0,44.0,-100.00,North,4,7.0,13.0,92,0.00,,,0.00,0.000000,,2013-03-23 12:02:00,
2013-03-23 07:33:00,46.0,44.0,-100.00,ENE,74,3.0,9.0,92,0.07,,,0.07,0.000000,,2013-03-23 12:33:00,
2013-03-23 07:43:00,46.0,44.0,-100.00,ENE,74,3.0,9.0,92,0.07,,,0.07,0.000000,,2013-03-23 12:43:00,
2013-03-23 07:53:00,46.0,44.0,-100.00,ENE,74,3.0,9.0,92,0.07,,,0.07,0.000000,,2013-03-23 12:53:00,
2013-03-23 08:03:00,46.0,44.0,-100.00,ENE,74,3.0,9.0,92,0.07,,,0.07,0.000000,,2013-03-23 13:03:00,
2013-03-23 08:33:00,44.0,42.0,-100.00,South,170,7.0,21.0,93,0.73,,,0.80,0.000000,,2013-03-23 13:33:00,
2013-03-23 08:43:00,44.0,42.0,-100.00,South,170,7.0,21.0,93,0.73,,,0.80,0.000000,,2013-03-23 13:43:00,
2013-03-23 08:53:00,44.0,42.0,-100.00,South,170,7.0,21.0,93,0.73,,,0.80,0.000000,,2013-03-23 13:53:00,
2013-03-23 09:03:00,44.0,42.0,-100.00,South,170,7.0,21.0,93,0.73,,,0.80,0.000000,,2013-03-23 14:03:00,
2013-03-23 09:33:00,45.0,43.0,-100.00,ESE,121,4.0,9.0,93,0.08,,,0.88,33.000000,,2013-03-23 14:33:00,
2013-03-23 09:43:00,45.0,43.0,-100.00,ESE,121,4.0,9.0,93,0.08,,,0.88,33.000000,,2013-03-23 14:43:00,
2013-03-23 09:53:00,45.0,43.0,-100.00,ESE,121,4.0,9.0,93,0.08,,,0.88,33.000000,,2013-03-23 14:53:00,
2013-03-23 10:03:00,45.0,43.0,-100.00,ESE,121,4.0,9.0,93,0.08,,,0.88,33.000000,,2013-03-23 15:03:00,
2013-03-23 10:34:00,50.0,47.0,-100.00,SE,127,9.0,16.0,91,0.00,,,0.88,235.000000,,2013-03-23 15:34:00,
2013-03-23 10:44:00,50.0,47.0,-100.00,SE,127,9.0,16.0,91,0.00,,,0.88,235.000000,,2013-03-23 15:44:00,
2013-03-23 10:53:00,50.0,47.0,-100.00,SE,127,9.0,16.0,91,0.00,,,0.88,235.000000,,2013-03-23 15:53:00,
2013-03-23 11:03:00,50.0,47.0,-100.00,SE,127,9.0,16.0,91,0.00,,,0.88,235.000000,,2013-03-23 16:03:00,
2013-03-23 11:33:00,52.0,47.0,-100.00,NNW,335,6.0,14.0,84,0.00,,,0.88,339.000000,,2013-03-23 16:33:00,
2013-03-23 11:43:00,52.0,47.0,-100.00,NNW,335,6.0,14.0,84,0.00,,,0.88,339.000000,,2013-03-23 16:43:00,
2013-03-23 11:53:00,52.0,47.0,-100.00,NNW,335,6.0,14.0,84,0.00,,,0.88,339.000000,,2013-03-23 16:53:00,
2013-03-23 12:02:00,52.0,47.0,-100.00,NNW,335,6.0,14.0,84,0.00,,,0.88,339.000000,,2013-03-23 17:02:00,
2013-03-23 12:33:00,54.0,48.0,-100.00,NNW,337,5.0,10.0,81,0.00,,,0.88,359.000000,,2013-03-23 17:33:00,
2013-03-23 12:43:00,54.0,48.0,-100.00,NNW,337,5.0,10.0,81,0.00,,,0.88,359.000000,,2013-03-23 17:43:00,
2013-03-23 12:53:00,54.0,48.0,-100.00,NNW,337,5.0,10.0,81,0.00,,,0.88,359.000000,,2013-03-23 17:53:00,
2013-03-23 13:03:00,54.0,48.0,-100.00,NNW,337,5.0,10.0,81,0.00,,,0.88,359.000000,,2013-03-23 18:03:00,
2013-03-23 13:32:00,56.0,49.0,-100.00,NNW,346,4.0,8.0,77,0.00,,,0.88,433.000000,,2013-03-23 18:32:00,
2013-03-23 13:43:00,56.0,49.0,-100.00,NNW,346,4.0,8.0,77,0.00,,,0.88,433.000000,,2013-03-23 18:43:00,
2013-03-23 13:53:00,56.0,49.0,-100.00,NNW,346,4.0,8.0,77,0.00,,,0.88,433.000000,,2013-03-23 18:53:00,
2013-03-23 14:03:00,56.0,49.0,-100.00,NNW,346,4.0,8.0,77,0.00,,,0.88,433.000000,,2013-03-23 19:03:00,
2013-03-23 14:33:00,56.0,49.0,-100.00,North,9,5.0,9.0,76,0.00,,,0.88,320.000000,,2013-03-23 19:33:00,
2013-03-23 14:43:00,56.0,49.0,-100.00,North,9,5.0,9.0,76,0.00,,,0.88,320.000000,,2013-03-23 19:43:00,
2013-03-23 14:53:00,56.0,49.0,-100.00,North,9,5.0,9.0,76,0.00,,,0.88,320.000000,,2013-03-23 19:53:00,
2013-03-23 15:02:00,56.0,49.0,-100.00,North,9,5.0,9.0,76,0.00,,,0.88,320.000000,,2013-03-23 20:02:00,
2013-03-23 15:33:00,55.0,48.0,-100.00,North,3,6.0,11.0,78,0.00,,,0.88,230.000000,,2013-03-23 20:33:00,
2013-03-23 15:43:00,55.0,48.0,-100.00,North,3,6.0,11.0,78,0.00,,,0.88,230.000000,,2013-03-23 20:43:00,
2013-03-23 15:53:00,55.0,48.0,-100.00,North,3,6.0,11.0,78,0.00,,,0.88,230.000000,,2013-03-23 20:53:00,
2013-03-23 16:02:00,55.0,48.0,-100.00,North,3,6.0,11.0,78,0.00,,,0.88,230.000000,,2013-03-23 21:02:00,
2013-03-23 16:33:00,52.0,47.0,-100.00,North,1,6.0,11.0,84,0.00,,,0.88,133.000000,,2013-03-23 21:33:00,
2013-03-23 16:43:00,52.0,47.0,-100.00,North,1,6.0,11.0,84,0.00,,,0.88,133.000000,,2013-03-23 21:43:00,
2013-03-23 16:54:00,52.0,47.0,-100.00,North,1,6.0,11.0,84,0.00,,,0.88,133.000000,,2013-03-23 21:54:00,
2013-03-23 17:03:00,52.0,47.0,-100.00,North,1,6.0,11.0,84,0.00,,,0.88,133.000000,,2013-03-23 22:03:00,
2013-03-23 17:33:00,54.0,49.0,-100.00,North,10,4.0,9.0,82,0.00,,,0.88,89.000000,,2013-03-23 22:33:00,
2013-03-23 17:43:00,54.0,49.0,-100.00,North,10,4.0,9.0,82,0.00,,,0.88,89.000000,,2013-03-23 22:43:00,
2013-03-23 17:53:00,54.0,49.0,-100.00,North,10,4.0,9.0,82,0.00,,,0.88,89.000000,,2013-03-23 22:53:00,
2013-03-23 18:02:00,54.0,49.0,-100.00,North,10,4.0,9.0,82,0.00,,,0.88,89.000000,,2013-03-23 23:02:00,
2013-03-23 18:33:00,53.0,49.0,-100.00,NNE,13,6.0,10.0,85,0.00,,,0.88,78.000000,,2013-03-23 23:33:00,
2013-03-23 18:43:00,53.0,49.0,-100.00,NNE,13,6.0,10.0,85,0.00,,,0.88,78.000000,,2013-03-23 23:43:00,
2013-03-23 18:52:00,53.0,49.0,-100.00,NNE,13,6.0,10.0,85,0.00,,,0.88,78.000000,,2013-03-23 23:52:00,
2013-03-23 19:02:00,53.0,49.0,-100.00,NNE,13,6.0,10.0,85,0.00,,,0.88,78.000000,,2013-03-24 00:02:00,
2013-03-23 19:33:00,53.0,48.0,-100.00,NE,42,5.0,10.0,83,0.00,,,-99.99,84.000000,,2013-03-24 00:33:00,
2013-03-23 19:42:00,53.0,48.0,-100.00,NE,42,5.0,10.0,83,0.00,,,-99.99,84.000000,,2013-03-24 00:42:00,
2013-03-23 19:52:00,53.0,48.0,-100.00,NE,42,5.0,10.0,83,0.00,,,-99.99,84.000000,,2013-03-24 00:52:00,
2013-03-23 20:02:00,53.0,48.0,-100.00,NE,42,5.0,10.0,83,0.00,,,-99.99,84.000000,,2013-03-24 01:02:00,
2013-03-23 20:33:00,50.0,46.0,-100.00,SE,132,2.0,9.0,86,0.00,,,0.88,20.000000,,2013-03-24 01:33:00,
2013-03-23 20:43:00,50.0,46.0,-100.00,SE,132,2.0,9.0,86,0.00,,,0.88,20.000000,,2013-03-24 01:43:00,
2013-03-23 20:53:00,50.0,46.0,-100.00,SE,132,2.0,9.0,86,0.00,,,0.88,20.000000,,2013-03-24 01:53:00,
2013-03-23 21:03:00,50.0,46.0,-100.00,SE,132,2.0,9.0,86,0.00,,,0.88,20.000000,,2013-03-24 02:03:00,
2013-03-23 21:32:00,50.0,47.0,-100.00,ENE,63,2.0,5.0,91,0.00,,,0.88,0.000000,,2013-03-24 02:32:00,
2013-03-23 21:43:00,50.0,47.0,-100.00,ENE,63,2.0,5.0,91,0.00,,,0.88,0.000000,,2013-03-24 02:43:00,
2013-03-23 21:52:00,50.0,47.0,-100.00,ENE,63,2.0,5.0,91,0.00,,,0.88,0.000000,,2013-03-24 02:52:00,
2013-03-23 22:02:00,50.0,47.0,-100.00,ENE,63,2.0,5.0,91,0.00,,,0.88,0.000000,,2013-03-24 03:02:00,
2013-03-23 22:33:00,51.0,48.0,-100.00,NNE,26,2.0,6.0,89,0.00,,,0.88,0.000000,,2013-03-24 03:33:00,
2013-03-23 22:43:00,51.0,48.0,-100.00,NNE,26,2.0,6.0,89,0.00,,,0.88,0.000000,,2013-03-24 03:43:00,
2013-03-23 22:53:00,51.0,48.0,-100.00,NNE,26,2.0,6.0,89,0.00,,,0.88,0.000000,,2013-03-24 03:53:00,
2013-03-23 23:03:00,51.0,48.0,-100.00,NNE,26,2.0,6.0,89,0.00,,,0.88,0.000000,,2013-03-24 04:03:00,
2013-03-23 23:33:00,52.0,49.0,-100.00,NNW,329,6.0,13.0,88,0.00,,,0.88,0.000000,,2013-03-24 04:33:00,
2013-03-23 23:43:00,52.0,49.0,-100.00,NNW,329,6.0,13.0,88,0.00,,,0.88,0.000000,,2013-03-24 04:43:00,
2013-03-23 23:53:00,52.0,49.0,-100.00,NNW,329,6.0,13.0,88,0.00,,,0.88,0.000000,,2013-03-24 04:53:00,